Time;durP1;ratioP1;P1;durP2;ratioP2;P2;SDS_P1;SDS_P2;PMS_P1;PMS_P2;Temp;Humidity;BMP_temperature;BMP_pressure;BME280_temperature;BME280_humidity;BME280_pressure;Samples;Min_cycle;Max_cycle;Signal;HPM_P1;HPM_P2
2021/04/02 00:02:07;;;;;;;8.90;4.03;;;11.70;99.90;;;;;;5070787;28;20259;-79
2021/04/02 00:04:34;;;;;;;7.00;3.00;;;11.70;99.90;;;;;;5057038;28;20218;-79
2021/04/02 00:07:04;;;;;;;6.03;3.23;;;11.70;99.90;;;;;;5070759;28;20252;-80
2021/04/02 00:09:30;;;;;;;7.97;3.87;;;11.70;99.90;;;;;;5070224;28;20202;-80
2021/04/02 00:11:57;;;;;;;9.77;3.70;;;11.70;99.90;;;;;;5069959;28;20669;-78
2021/04/02 00:14:23;;;;;;;5.93;3.40;;;11.60;99.90;;;;;;5069851;28;20693;-78
2021/04/02 00:16:50;;;;;;;6.43;3.67;;;11.60;99.90;;;;;;5070216;28;20226;-82
2021/04/02 00:19:16;;;;;;;10.63;3.37;;;11.60;99.90;;;;;;5070248;28;20210;-82
2021/04/02 00:21:43;;;;;;;4.77;3.40;;;11.60;99.90;;;;;;5069813;28;20210;-80
2021/04/02 00:24:10;;;;;;;5.20;3.17;;;11.60;99.90;;;;;;5069891;28;20286;-76
2021/04/02 00:26:37;;;;;;;8.87;3.53;;;11.60;99.90;;;;;;5069822;28;20217;-83
2021/04/02 00:29:04;;;;;;;5.07;3.83;;;11.50;99.90;;;;;;5073682;28;20264;-82
2021/04/02 00:31:30;;;;;;;6.93;3.97;;;11.50;99.90;;;;;;5074229;28;20213;-82
2021/04/02 00:33:57;;;;;;;4.73;3.10;;;11.60;99.90;;;;;;5073744;28;20251;-83
2021/04/02 00:36:24;;;;;;;8.27;3.53;;;11.60;99.90;;;;;;5074032;28;20238;-85
2021/04/02 00:38:50;;;;;;;6.83;3.40;;;11.60;99.90;;;;;;5073310;28;20689;-77
2021/04/02 00:41:20;;;;;;;10.50;3.80;;;11.50;99.90;;;;;;5073452;28;20214;-78
2021/04/02 00:43:49;;;;;;;5.03;3.97;;;11.60;99.90;;;;;;5073646;28;20267;-79
2021/04/02 00:46:18;;;;;;;4.80;2.90;;;11.50;99.90;;;;;;5073408;28;20717;-79
2021/04/02 00:48:46;;;;;;;5.53;3.30;;;11.60;99.90;;;;;;5073387;28;20221;-83
2021/04/02 00:51:14;;;;;;;8.40;3.43;;;11.60;99.90;;;;;;5073366;28;20253;-71
2021/04/02 00:53:42;;;;;;;6.93;3.40;;;11.50;99.90;;;;;;5072985;28;20202;-75
2021/04/02 00:56:10;;;;;;;7.23;3.57;;;11.50;99.90;;;;;;5073340;28;20731;-75
2021/04/02 00:58:38;;;;;;;7.23;3.83;;;11.50;99.90;;;;;;5072952;28;20202;-78
2021/04/02 01:01:07;;;;;;;10.00;3.33;;;11.60;99.90;;;;;;5073681;28;20203;-74
2021/04/02 01:03:34;;;;;;;6.90;3.67;;;11.60;99.90;;;;;;5073029;28;20202;-76
2021/04/02 01:06:03;;;;;;;6.43;3.43;;;11.60;99.90;;;;;;5073248;28;20709;-72
2021/04/02 01:08:32;;;;;;;5.13;3.13;;;11.60;99.90;;;;;;5073516;28;20555;-77
2021/04/02 01:11:02;;;;;;;5.67;3.43;;;11.60;99.90;;;;;;5073502;28;20206;-74
2021/04/02 01:13:35;;;;;;;6.90;3.77;;;11.60;99.90;;;;;;5073895;28;20202;-76
2021/04/02 01:16:07;;;;;;;7.90;4.20;;;11.60;99.90;;;;;;5073194;28;20615;-75
2021/04/02 01:18:37;;;;;;;7.13;4.00;;;11.50;99.90;;;;;;5072691;28;20229;-76
2021/04/02 01:21:10;;;;;;;7.67;3.80;;;11.60;99.90;;;;;;5072882;28;20206;-75
2021/04/02 01:23:46;;;;;;;8.50;3.40;;;11.60;99.90;;;;;;5072527;28;20240;-75
2021/04/02 01:26:19;;;;;;;7.80;3.70;;;11.60;99.90;;;;;;5072786;28;20212;-76
2021/04/02 01:28:58;;;;;;;5.50;3.33;;;11.60;99.90;;;;;;5072418;28;20586;-76
2021/04/02 01:31:25;;;;;;;10.70;2.80;;;11.50;99.90;;;;;;5072675;28;20206;-79
2021/04/02 01:33:54;;;;;;;9.60;5.87;;;11.50;99.90;;;;;;5072577;28;20723;-78
2021/04/02 01:36:22;;;;;;;11.73;4.13;;;11.40;99.90;;;;;;5072320;28;20729;-83
2021/04/02 01:38:50;;;;;;;7.43;3.83;;;11.40;99.90;;;;;;5072258;28;20217;-83
2021/04/02 01:41:20;;;;;;;5.17;3.87;;;12.10;99.90;;;;;;5072618;28;20556;-76
2021/04/02 01:43:51;;;;;;;7.37;3.97;;;11.40;99.90;;;;;;5072440;28;20587;-77
2021/04/02 01:46:19;;;;;;;7.63;3.43;;;11.40;99.90;;;;;;5072154;28;20551;-76
2021/04/02 01:48:48;;;;;;;5.17;3.73;;;10.90;99.90;;;;;;5072088;28;20616;-76
2021/04/02 01:51:15;;;;;;;7.73;4.17;;;11.70;99.90;;;;;;5072370;28;20210;-76
2021/04/02 01:53:45;;;;;;;4.80;3.13;;;11.30;99.90;;;;;;5071777;28;20214;-77
2021/04/02 01:56:14;;;;;;;11.13;3.77;;;11.30;99.90;;;;;;5072334;28;20230;-79
2021/04/02 01:58:43;;;;;;;4.63;3.20;;;11.30;99.90;;;;;;5071881;28;20203;-76
2021/04/02 02:01:11;;;;;;;4.77;3.93;;;11.20;99.90;;;;;;5072318;28;20202;-77
2021/04/02 02:03:39;;;;;;;5.17;4.03;;;11.30;99.90;;;;;;5069895;28;20330;-76
2021/04/02 02:06:08;;;;;;;5.43;3.37;;;11.30;99.90;;;;;;5072661;28;20225;-78
2021/04/02 02:08:36;;;;;;;6.73;3.00;;;15.00;99.90;;;;;;5068971;28;20215;-77
2021/04/02 02:11:09;;;;;;;6.20;3.17;;;11.30;99.90;;;;;;5061399;28;20210;-78
2021/04/02 02:13:36;;;;;;;4.07;2.53;;;;;;;;;;5071848;28;20206;-77
2021/04/02 02:16:06;;;;;;;9.10;4.47;;;11.20;99.90;;;;;;5071794;28;20285;-78
2021/04/02 02:18:33;;;;;;;5.87;3.33;;;;;;;;;;5071635;28;20221;-78
2021/04/02 02:21:01;;;;;;;8.17;4.30;;;11.60;99.90;;;;;;5072102;28;20209;-79
2021/04/02 02:23:27;;;;;;;7.37;3.70;;;11.30;99.90;;;;;;5057832;28;20206;-76
2021/04/02 02:25:54;;;;;;;6.90;4.17;;;11.20;99.90;;;;;;5071917;28;20213;-77
2021/04/02 02:28:21;;;;;;;4.20;3.00;;;11.30;99.90;;;;;;5071727;28;20207;-76
2021/04/02 02:30:48;;;;;;;7.17;3.97;;;11.30;99.90;;;;;;5071305;28;20685;-76
2021/04/02 02:33:14;;;;;;;7.17;4.40;;;12.20;99.90;;;;;;5071495;28;20210;-77
2021/04/02 02:35:41;;;;;;;9.17;4.00;;;12.10;99.90;;;;;;5071102;28;20217;-76
2021/04/02 02:38:09;;;;;;;8.07;4.90;;;11.30;99.90;;;;;;5070889;28;20260;-76
2021/04/02 02:40:38;;;;;;;6.23;3.43;;;11.20;99.90;;;;;;5057996;28;20214;-75
2021/04/02 02:43:06;;;;;;;4.83;3.57;;;11.20;99.90;;;;;;5071415;28;20652;-77
2021/04/02 02:45:34;;;;;;;6.00;3.80;;;11.10;99.90;;;;;;5071004;28;20206;-77
2021/04/02 02:48:01;;;;;;;6.17;3.20;;;11.10;99.90;;;;;;5071492;28;20755;-75
2021/04/02 02:50:32;;;;;;;7.57;4.70;;;11.30;99.90;;;;;;5070831;28;20576;-76
2021/04/02 02:53:00;;;;;;;7.90;3.77;;;11.60;99.90;;;;;;5070928;28;20627;-76
2021/04/02 02:55:30;;;;;;;6.43;3.77;;;12.40;99.90;;;;;;5071230;28;20210;-76
2021/04/02 02:57:59;;;;;;;5.20;4.17;;;12.80;99.90;;;;;;5071024;28;20287;-76
2021/04/02 03:00:29;;;;;;;4.30;3.80;;;11.80;99.90;;;;;;5071129;28;20210;-75
2021/04/02 03:02:57;;;;;;;7.23;3.87;;;;;;;;;;5070491;28;20209;-76
2021/04/02 03:05:26;;;;;;;6.07;3.50;;;11.30;99.90;;;;;;5071344;28;20202;-75
2021/04/02 03:08:01;;;;;;;5.23;3.63;;;11.90;99.90;;;;;;5070678;28;20210;-75
2021/04/02 03:10:30;;;;;;;8.67;4.97;;;12.20;99.90;;;;;;5070929;28;20225;-76
2021/04/02 03:12:58;;;;;;;9.10;4.17;;;12.60;99.90;;;;;;5070487;28;20202;-78
2021/04/02 03:15:26;;;;;;;10.57;5.93;;;11.40;99.90;;;;;;5070897;28;20582;-80
2021/04/02 03:17:56;;;;;;;5.10;3.93;;;;;;;;;;5070209;28;20654;-81
2021/04/02 03:20:23;;;;;;;9.23;4.40;;;11.40;99.90;;;;;;5071137;28;20214;-81
2021/04/02 03:22:52;;;;;;;7.27;3.90;;;10.90;99.90;;;;;;5071090;28;20206;-78
2021/04/02 03:25:22;;;;;;;4.27;3.73;;;12.00;99.90;;;;;;5070794;28;20739;-76
2021/04/02 03:27:51;;;;;;;4.10;3.70;;;11.70;99.90;;;;;;5070167;28;20210;-76
2021/04/02 03:30:19;;;;;;;4.43;4.03;;;11.30;99.90;;;;;;5070975;28;20210;-77
2021/04/02 03:32:55;;;;;;;7.00;4.17;;;11.30;99.90;;;;;;5070118;28;20202;-76
2021/04/02 03:35:24;;;;;;;7.80;5.33;;;11.20;99.90;;;;;;5070554;28;20248;-76
2021/04/02 03:37:52;;;;;;;7.97;4.83;;;12.50;99.90;;;;;;5070212;28;20320;-76
2021/04/02 03:40:21;;;;;;;5.97;5.40;;;11.10;99.90;;;;;;5070545;28;20248;-74
2021/04/02 03:42:52;;;;;;;6.70;4.70;;;11.10;99.90;;;;;;5070058;28;20217;-76
2021/04/02 03:45:21;;;;;;;4.97;4.53;;;11.10;99.90;;;;;;5070417;28;20210;-76
2021/04/02 03:47:50;;;;;;;11.47;4.63;;;11.20;99.90;;;;;;5070360;28;20747;-76
2021/04/02 03:50:19;;;;;;;5.33;4.50;;;11.00;99.90;;;;;;5070298;28;20202;-76
2021/04/02 03:52:57;;;;;;;7.13;5.30;;;11.20;99.90;;;;;;5069836;28;20688;-75
2021/04/02 03:55:24;;;;;;;10.27;6.13;;;11.20;99.90;;;;;;5070229;28;20202;-75
2021/04/02 03:57:52;;;;;;;8.53;4.17;;;8.60;99.90;;;;;;5070147;28;20237;-73
2021/04/02 04:00:22;;;;;;;6.73;4.33;;;11.10;99.90;;;;;;5070199;28;20203;-72
2021/04/02 04:02:50;;;;;;;7.60;4.20;;;11.00;99.90;;;;;;5072699;28;20206;-71
2021/04/02 04:05:18;;;;;;;9.50;5.10;;;11.00;99.90;;;;;;5076556;28;20681;-72
2021/04/02 04:07:47;;;;;;;6.53;4.97;;;11.10;99.90;;;;;;5076875;28;20209;-71
2021/04/02 04:10:15;;;;;;;10.37;4.90;;;11.10;99.90;;;;;;5074173;28;20213;-72
2021/04/02 04:12:43;;;;;;;6.60;4.67;;;11.00;99.90;;;;;;5076251;28;20228;-71
2021/04/02 04:15:13;;;;;;;8.53;4.43;;;11.10;99.90;;;;;;5076699;28;20201;-72
2021/04/02 04:17:41;;;;;;;5.43;4.57;;;10.90;99.90;;;;;;5076636;28;20302;-71
2021/04/02 04:20:11;;;;;;;8.03;5.93;;;11.00;99.90;;;;;;5076783;28;20724;-72
2021/04/02 04:22:39;;;;;;;8.60;6.20;;;11.00;99.90;;;;;;5076185;28;20210;-71
2021/04/02 04:25:08;;;;;;;13.93;5.97;;;11.00;99.90;;;;;;5076947;28;20206;-72
2021/04/02 04:27:38;;;;;;;6.80;5.20;;;11.00;99.90;;;;;;5076169;28;20206;-72
2021/04/02 04:30:09;;;;;;;9.10;5.87;;;11.00;99.90;;;;;;5076582;28;20240;-83
2021/04/02 04:32:39;;;;;;;7.50;5.23;;;10.90;99.90;;;;;;5076388;28;20242;-84
2021/04/02 04:35:07;;;;;;;11.17;5.60;;;11.00;99.90;;;;;;5063303;28;20198;-76
2021/04/02 04:37:36;;;;;;;8.10;4.83;;;10.90;99.90;;;;;;5076501;28;20240;-76
2021/04/02 04:40:04;;;;;;;10.23;5.10;;;10.90;99.90;;;;;;5076509;28;20697;-74
2021/04/02 04:42:32;;;;;;;11.57;5.77;;;10.90;99.90;;;;;;5076836;28;20712;-75
2021/04/02 04:44:59;;;;;;;7.07;5.43;;;10.70;99.90;;;;;;5076318;28;20202;-76
2021/04/02 04:47:26;;;;;;;10.97;6.63;;;10.70;99.90;;;;;;5076640;28;20214;-75
2021/04/02 04:49:53;;;;;;;6.97;5.43;;;10.80;99.90;;;;;;5076013;28;20213;-75
2021/04/02 04:52:21;;;;;;;5.43;4.60;;;10.90;99.90;;;;;;5076715;28;20198;-76
2021/04/02 04:54:52;;;;;;;10.37;5.33;;;10.90;99.90;;;;;;5076217;28;20220;-74
2021/04/02 04:57:21;;;;;;;10.60;5.30;;;10.90;99.90;;;;;;5075214;28;20260;-75
2021/04/02 04:59:51;;;;;;;5.33;4.63;;;10.90;99.90;;;;;;5075996;28;20210;-78
2021/04/02 05:02:19;;;;;;;12.73;5.47;;;10.80;99.90;;;;;;5062154;28;20552;-77
2021/04/02 05:04:48;;;;;;;7.93;5.63;;;10.90;99.90;;;;;;5075974;28;20213;-78
2021/04/02 05:07:18;;;;;;;9.00;5.77;;;10.80;99.90;;;;;;5076118;28;20202;-78
2021/04/02 05:09:46;;;;;;;11.27;5.30;;;10.90;99.90;;;;;;5075970;28;20585;-76
2021/04/02 05:12:16;;;;;;;9.20;5.50;;;10.90;99.90;;;;;;5076017;28;20217;-74
2021/04/02 05:14:45;;;;;;;7.83;5.17;;;10.90;99.90;;;;;;5073740;28;20207;-74
2021/04/02 05:17:12;;;;;;;6.53;5.23;;;10.90;99.90;;;;;;5073320;28;20234;-74
2021/04/02 05:19:40;;;;;;;7.90;6.07;;;11.00;99.90;;;;;;5072901;28;20213;-74
2021/04/02 05:22:09;;;;;;;5.43;4.93;;;11.00;99.90;;;;;;5072637;28;20206;-74
2021/04/02 05:24:36;;;;;;;11.10;5.73;;;11.00;99.90;;;;;;5072651;28;20209;-74
2021/04/02 05:27:04;;;;;;;9.53;5.63;;;11.00;99.90;;;;;;5072466;28;20874;-76
2021/04/02 05:29:31;;;;;;;10.17;6.13;;;11.00;99.90;;;;;;5073039;28;20218;-78
2021/04/02 05:31:57;;;;;;;10.63;5.37;;;11.00;99.90;;;;;;5072476;28;20213;-74
2021/04/02 05:34:24;;;;;;;8.97;5.73;;;11.10;99.90;;;;;;5072499;28;20685;-72
2021/04/02 05:36:50;;;;;;;8.87;5.67;;;11.20;99.90;;;;;;5072449;28;20230;-74
2021/04/02 05:39:17;;;;;;;6.77;4.90;;;11.10;99.90;;;;;;5072422;28;20610;-75
2021/04/02 05:41:51;;;;;;;9.03;5.60;;;11.00;99.90;;;;;;5072408;28;20202;-73
2021/04/02 05:44:25;;;;;;;8.33;5.03;;;11.00;99.90;;;;;;5072810;28;20340;-75
2021/04/02 05:46:53;;;;;;;6.93;5.90;;;11.10;99.90;;;;;;5072091;28;20217;-74
2021/04/02 05:49:21;;;;;;;7.50;4.90;;;11.00;99.90;;;;;;5072795;28;20214;-72
2021/04/02 05:51:49;;;;;;;12.07;5.10;;;11.00;99.90;;;;;;5071731;28;20297;-74
2021/04/02 05:54:23;;;;;;;7.87;5.33;;;11.00;99.90;;;;;;5072267;28;20198;-73
2021/04/02 05:56:52;;;;;;;10.90;6.30;;;11.00;99.90;;;;;;5071603;28;20213;-72
2021/04/02 05:59:20;;;;;;;11.40;5.77;;;11.00;99.90;;;;;;5072248;28;20623;-72
2021/04/02 06:01:46;;;;;;;12.27;5.83;;;11.10;99.90;;;;;;5071665;28;20621;-73
2021/04/02 06:04:14;;;;;;;6.90;5.90;;;11.10;99.90;;;;;;5072117;28;20209;-73
2021/04/02 06:06:41;;;;;;;8.30;5.87;;;11.10;99.90;;;;;;5072223;28;20261;-75
2021/04/02 06:09:07;;;;;;;6.07;5.50;;;11.30;99.90;;;;;;5071759;28;20205;-75
2021/04/02 06:11:36;;;;;;;7.27;5.37;;;11.30;99.90;;;;;;5072379;28;20209;-75
2021/04/02 06:14:03;;;;;;;10.97;6.07;;;11.30;99.90;;;;;;5071933;28;20207;-71
2021/04/02 06:16:30;;;;;;;9.83;5.37;;;11.20;99.90;;;;;;5072235;28;20604;-73
2021/04/02 06:19:04;;;;;;;11.57;4.77;;;11.30;99.90;;;;;;5071474;28;20205;-72
2021/04/02 06:21:30;;;;;;;9.27;5.20;;;11.40;99.90;;;;;;5072189;28;20556;-73
2021/04/02 06:23:57;;;;;;;9.67;5.77;;;11.40;99.90;;;;;;5071037;28;20589;-72
2021/04/02 06:26:23;;;;;;;8.47;4.73;;;11.40;99.90;;;;;;5071380;28;20709;-74
2021/04/02 06:28:50;;;;;;;8.17;7.03;;;11.50;99.90;;;;;;5071588;28;20209;-74
2021/04/02 06:31:19;;;;;;;9.30;5.63;;;11.60;99.90;;;;;;5071534;28;20214;-74
2021/04/02 06:33:50;;;;;;;8.17;5.77;;;11.60;99.90;;;;;;5071425;28;20210;-73
2021/04/02 06:36:19;;;;;;;8.70;6.87;;;11.70;99.90;;;;;;5071071;28;20210;-74
2021/04/02 06:38:47;;;;;;;11.57;5.60;;;11.80;99.90;;;;;;5070964;28;20272;-74
2021/04/02 06:41:15;;;;;;;13.83;7.43;;;11.90;99.90;;;;;;5071374;28;20271;-73
2021/04/02 06:43:44;;;;;;;9.63;6.33;;;11.90;99.90;;;;;;5071404;28;20573;-74
2021/04/02 06:46:12;;;;;;;12.03;6.83;;;12.00;99.90;;;;;;5071360;28;20763;-75
2021/04/02 06:48:40;;;;;;;7.70;5.97;;;12.10;99.90;;;;;;5070903;28;20221;-75
2021/04/02 06:51:14;;;;;;;8.53;6.60;;;12.10;99.90;;;;;;5071055;28;20260;-74
2021/04/02 06:53:44;;;;;;;6.60;5.90;;;12.10;99.90;;;;;;5070905;28;20198;-73
2021/04/02 06:56:11;;;;;;;8.47;6.57;;;12.30;99.90;;;;;;5070926;28;20627;-73
2021/04/02 06:58:38;;;;;;;9.57;5.73;;;12.30;99.90;;;;;;5071225;28;20241;-75
2021/04/02 07:01:05;;;;;;;9.80;5.50;;;12.40;99.90;;;;;;5070916;28;20206;-76
2021/04/02 07:03:33;;;;;;;9.87;5.73;;;12.50;99.90;;;;;;5071240;28;20202;-77
2021/04/02 07:06:01;;;;;;;8.43;6.13;;;12.60;99.90;;;;;;5070901;28;20206;-78
2021/04/02 07:08:28;;;;;;;9.50;6.10;;;12.60;99.90;;;;;;5070681;28;20210;-78
2021/04/02 07:10:57;;;;;;;6.63;5.70;;;12.70;99.90;;;;;;5070435;28;20279;-74
2021/04/02 07:13:25;;;;;;;7.50;5.70;;;12.70;99.90;;;;;;5070875;28;20579;-78
2021/04/02 07:15:53;;;;;;;11.57;6.73;;;12.90;99.90;;;;;;5070135;28;20210;-75
2021/04/02 07:18:19;;;;;;;9.93;7.27;;;12.80;99.90;;;;;;5070641;28;20712;-76
2021/04/02 07:20:48;;;;;;;9.57;6.57;;;12.90;99.90;;;;;;5070108;28;20202;-75
2021/04/02 07:23:17;;;;;;;7.97;5.87;;;13.00;99.90;;;;;;5070747;28;20245;-76
2021/04/02 07:25:43;;;;;;;5.90;5.17;;;13.10;99.90;;;;;;5070742;28;20573;-76
2021/04/02 07:28:11;;;;;;;10.17;5.90;;;13.20;99.90;;;;;;5070532;28;20210;-73
2021/04/02 07:30:38;;;;;;;10.93;6.20;;;13.40;99.90;;;;;;5069764;28;20233;-75
2021/04/02 07:33:07;;;;;;;27.07;7.73;;;;;;;;;;5067324;28;20210;-74
2021/04/02 07:35:36;;;;;;;14.00;7.73;;;14.30;99.90;;;;;;5070554;28;20210;-76
2021/04/02 07:38:03;;;;;;;17.63;6.47;;;13.80;99.90;;;;;;5068821;28;20237;-80
2021/04/02 07:40:32;;;;;;;6.80;4.83;;;14.00;99.90;;;;;;5070047;28;20217;-80
2021/04/02 07:43:00;;;;;;;6.63;3.83;;;13.90;99.90;;;;;;5070215;28;20214;-79
2021/04/02 07:45:31;;;;;;;10.17;5.10;;;14.10;99.90;;;;;;5070336;28;20415;-76
2021/04/02 07:48:11;;;;;;;6.27;4.27;;;14.00;99.90;;;;;;5069613;28;20297;-80
2021/04/02 07:50:41;;;;;;;4.45;3.88;;;14.10;99.90;;;;;;5070583;28;20214;-78
2021/04/02 07:53:13;;;;;;;9.90;5.18;;;14.10;99.90;;;;;;5070334;28;20259;-78
2021/04/02 07:55:48;;;;;;;6.25;4.40;;;14.10;99.90;;;;;;5070344;28;20206;-78
2021/04/02 07:58:23;;;;;;;6.85;3.90;;;14.20;99.90;;;;;;5067116;28;20307;-75
2021/04/02 08:00:53;;;;;;;7.25;4.75;;;14.20;99.90;;;;;;5067785;28;20208;-78
2021/04/02 08:03:22;;;;;;;6.65;4.78;;;14.30;99.90;;;;;;5070305;28;20209;-79
2021/04/02 08:06:00;;;;;;;8.00;4.30;;;14.50;99.90;;;;;;5069340;28;20712;-79
2021/04/02 08:08:28;;;;;;;8.73;4.90;;;14.70;99.90;;;;;;5064708;28;20644;-78
2021/04/02 08:11:05;;;;;;;5.10;4.30;;;14.70;99.90;;;;;;5068185;28;20339;-77
2021/04/02 08:13:49;;;;;;;5.80;4.15;;;14.80;99.90;;;;;;5069463;28;20209;-79
2021/04/02 08:16:50;;;;;;;5.55;3.92;;;14.90;99.90;;;;;;5070089;28;20275;-76
2021/04/02 08:19:24;;;;;;;8.43;3.83;;;14.90;99.90;;;;;;5065367;28;20209;-80
2021/04/02 08:21:54;;;;;;;6.60;3.97;;;15.00;99.90;;;;;;5069429;28;20209;-76
2021/04/02 08:24:22;;;;;;;10.45;4.00;;;14.90;99.90;;;;;;5069234;28;20198;-75
2021/04/02 08:26:50;;;;;;;6.80;3.60;;;15.10;99.90;;;;;;5069786;28;20217;-76
2021/04/02 08:29:19;;;;;;;6.00;3.38;;;15.40;99.90;;;;;;5068775;28;20210;-80
2021/04/02 08:31:49;;;;;;;6.05;3.90;;;15.80;99.90;;;;;;5068692;28;20198;-82
2021/04/02 08:34:18;;;;;;;5.95;3.05;;;16.30;99.90;;;;;;5069296;28;20666;-80
2021/04/02 08:36:46;;;;;;;7.60;3.15;;;16.10;99.90;;;;;;5069722;28;20232;-85
2021/04/02 08:39:13;;;;;;;5.00;3.38;;;16.30;99.90;;;;;;5070524;28;20654;-81
2021/04/02 08:41:39;;;;;;;7.85;3.63;;;16.60;99.90;;;;;;5070118;28;20209;-78
2021/04/02 08:44:07;;;;;;;7.50;3.35;;;16.80;99.90;;;;;;5069680;28;20614;-77
2021/04/02 08:46:45;;;;;;;5.25;3.30;;;16.50;99.90;;;;;;5069345;28;20210;-77
2021/04/02 08:49:13;;;;;;;10.70;3.92;;;16.70;99.90;;;;;;5069919;28;20206;-73
2021/04/02 08:51:40;;;;;;;3.95;3.00;;;16.70;99.90;;;;;;5072827;28;20202;-74
2021/04/02 08:54:13;;;;;;;6.43;3.00;;;16.60;99.90;;;;;;5073534;28;20206;-73
2021/04/02 08:56:40;;;;;;;3.58;2.80;;;16.80;99.90;;;;;;5072692;28;20198;-73
2021/04/02 08:59:10;;;;;;;5.95;3.42;;;17.20;99.90;;;;;;5072412;28;20230;-72
2021/04/02 09:01:43;;;;;;;6.28;2.97;;;;;;;;;;5070744;28;20202;-72
2021/04/02 09:04:11;;;;;;;3.88;3.53;;;17.90;99.90;;;;;;5069380;28;20213;-74
2021/04/02 09:06:38;;;;;;;6.32;2.92;;;18.00;99.90;;;;;;5073578;28;20210;-72
2021/04/02 09:09:15;;;;;;;5.35;3.35;;;19.00;99.90;;;;;;5071866;28;20289;-75
2021/04/02 09:11:42;;;;;;;2.80;2.53;;;18.60;99.90;;;;;;5072765;28;20293;-77
2021/04/02 09:14:11;;;;;;;4.18;2.20;;;18.80;99.90;;;;;;5073222;28;20206;-78
2021/04/02 09:16:39;;;;;;;5.93;3.58;;;18.90;99.90;;;;;;5072057;28;20210;-80
2021/04/02 09:19:06;;;;;;;3.25;2.88;;;18.60;99.90;;;;;;5072699;28;20210;-78
2021/04/02 09:21:34;;;;;;;6.28;2.95;;;21.00;99.90;;;;;;5073102;28;20210;-77
2021/04/02 09:24:02;;;;;;;3.42;3.03;;;21.80;99.90;;;;;;5069982;28;20251;-78
2021/04/02 09:26:29;;;;;;;5.63;2.47;;;21.10;99.90;;;;;;5069480;28;20669;-78
2021/04/02 09:28:59;;;;;;;4.55;2.58;;;21.90;99.90;;;;;;5072087;28;20202;-78
2021/04/02 09:31:28;;;;;;;3.45;2.90;;;22.10;99.90;;;;;;5072459;28;20316;-80
2021/04/02 09:33:57;;;;;;;5.05;2.65;;;21.00;99.90;;;;;;5072361;28;20209;-79
2021/04/02 09:36:27;;;;;;;4.30;3.00;;;19.60;99.90;;;;;;5072922;28;20750;-81
2021/04/02 09:39:06;;;;;;;4.97;2.70;;;19.20;99.90;;;;;;5072262;28;20242;-79
2021/04/02 09:41:33;;;;;;;4.35;2.45;;;19.90;99.90;;;;;;5072407;28;20201;-78
2021/04/02 09:44:07;;;;;;;6.13;2.72;;;20.20;99.90;;;;;;5070438;28;20217;-78
2021/04/02 09:46:36;;;;;;;5.38;3.28;;;19.00;99.90;;;;;;5071300;28;20282;-80
2021/04/02 09:49:08;;;;;;;4.47;2.25;;;19.70;99.90;;;;;;5068544;28;20256;-73
2021/04/02 09:51:37;;;;;;;4.32;2.47;;;20.30;99.90;;;;;;5072522;28;20213;-83
2021/04/02 09:54:04;;;;;;;3.60;2.72;;;22.10;99.90;;;;;;5072446;28;20210;-83
2021/04/02 09:56:31;;;;;;;4.03;2.85;;;20.60;99.90;;;;;;5072588;28;20760;-83
2021/04/02 09:58:57;;;;;;;3.58;3.22;;;21.40;99.90;;;;;;5072365;28;20210;-83
2021/04/02 10:01:24;;;;;;;6.05;2.80;;;22.50;99.90;;;;;;5072034;28;20565;-82
2021/04/02 10:03:52;;;;;;;3.10;2.83;;;23.10;99.90;;;;;;5071888;28;20214;-83
2021/04/02 10:06:19;;;;;;;2.63;2.40;;;22.30;99.90;;;;;;5072696;28;20210;-84
2021/04/02 10:08:46;;;;;;;5.57;3.13;;;23.00;99.90;;;;;;5072225;28;20203;-84
2021/04/02 10:11:13;;;;;;;4.55;3.03;;;23.60;99.90;;;;;;5072465;28;20677;-84
2021/04/02 10:13:40;;;;;;;3.90;2.92;;;23.90;99.90;;;;;;5072628;28;20213;-83
2021/04/02 10:16:07;;;;;;;4.53;2.97;;;24.40;99.90;;;;;;5069699;28;20206;-83
2021/04/02 10:18:35;;;;;;;4.32;2.28;;;25.00;99.90;;;;;;5071951;28;20241;-76
2021/04/02 10:21:04;;;;;;;4.32;3.00;;;25.20;99.90;;;;;;5068943;28;20210;-81
2021/04/02 10:23:31;;;;;;;5.15;2.78;;;21.90;99.90;;;;;;5072281;28;20656;-80
2021/04/02 10:25:58;;;;;;;7.07;3.58;;;22.10;99.90;;;;;;5071742;28;20682;-83
2021/04/02 10:28:24;;;;;;;6.22;2.80;;;23.70;99.90;;;;;;5070922;28;20658;-83
2021/04/02 10:30:51;;;;;;;2.55;2.25;;;24.10;99.90;;;;;;5071482;28;20206;-84
2021/04/02 10:33:18;;;;;;;5.22;3.00;;;24.40;99.90;;;;;;5071629;28;20202;-84
2021/04/02 10:35:45;;;;;;;4.40;2.55;;;23.30;99.90;;;;;;5064696;28;20226;-77
2021/04/02 10:38:12;;;;;;;4.13;3.05;;;21.00;99.90;;;;;;5071848;28;20222;-85
2021/04/02 10:40:40;;;;;;;2.45;2.15;;;20.70;99.90;;;;;;5072134;28;20217;-86
2021/04/02 10:43:07;;;;;;;3.30;2.20;;;20.30;99.90;;;;;;5071718;28;20205;-86
2021/04/02 10:45:33;;;;;;;4.70;2.85;;;20.70;99.90;;;;;;5071199;28;20216;-79
2021/04/02 10:48:01;;;;;;;3.72;2.97;;;20.50;99.90;;;;;;5071590;28;20214;-83
2021/04/02 10:50:28;;;;;;;4.00;3.63;;;20.60;99.90;;;;;;5072076;28;20206;-85
2021/04/02 10:52:55;;;;;;;4.25;2.55;;;20.80;99.90;;;;;;5071363;28;20271;-80
2021/04/02 10:55:23;;;;;;;5.78;3.72;;;20.20;99.90;;;;;;5071624;28;20206;-83
2021/04/02 10:57:50;;;;;;;7.63;3.42;;;20.10;99.90;;;;;;5071183;28;20237;-85
2021/04/02 11:00:19;;;;;;;4.45;2.60;;;20.50;99.90;;;;;;5071762;28;20206;-85
2021/04/02 11:02:46;;;;;;;2.75;2.53;;;21.10;99.90;;;;;;5071229;28;20209;-82
2021/04/02 11:05:13;;;;;;;5.30;3.45;;;20.50;99.90;;;;;;5071668;28;20675;-82
2021/04/02 11:07:40;;;;;;;3.45;2.80;;;20.70;99.90;;;;;;5069010;28;20206;-85
2021/04/02 11:10:08;;;;;;;6.43;2.70;;;20.70;99.90;;;;;;5069677;28;20206;-87
2021/04/02 11:12:36;;;;;;;6.28;2.72;;;20.50;99.90;;;;;;5069876;28;20218;-82
2021/04/02 11:15:06;;;;;;;5.07;2.67;;;20.50;99.90;;;;;;5070781;28;20206;-86
2021/04/02 11:17:33;;;;;;;5.25;4.05;;;20.40;99.90;;;;;;5070570;28;20274;-84
2021/04/02 11:20:00;;;;;;;8.50;3.88;;;20.70;99.90;;;;;;5071079;28;20256;-86
2021/04/02 11:22:27;;;;;;;5.00;2.88;;;20.80;99.90;;;;;;5071234;28;20268;-86
2021/04/02 11:24:53;;;;;;;4.18;2.13;;;21.10;99.90;;;;;;5058099;28;20209;-85
2021/04/02 11:27:21;;;;;;;3.03;2.72;;;20.60;99.90;;;;;;5071170;28;20212;-85
2021/04/02 11:29:48;;;;;;;4.95;3.00;;;20.60;99.90;;;;;;5070631;28;20260;-81
2021/04/02 11:32:15;;;;;;;3.95;2.75;;;21.00;99.90;;;;;;5060690;28;20214;-85
2021/04/02 11:34:42;;;;;;;5.75;3.05;;;21.00;99.90;;;;;;5069875;28;20229;-85
2021/04/02 11:37:09;;;;;;;4.72;2.45;;;21.20;99.90;;;;;;5071032;28;20317;-85
2021/04/02 11:39:36;;;;;;;4.30;2.70;;;21.10;99.90;;;;;;5071203;28;20212;-85
2021/04/02 11:42:03;;;;;;;4.82;2.75;;;21.50;99.90;;;;;;5070262;28;20305;-84
2021/04/02 11:44:32;;;;;;;3.05;2.63;;;21.60;99.90;;;;;;5069119;28;20206;-79
2021/04/02 11:47:00;;;;;;;3.05;2.20;;;21.30;99.90;;;;;;5064158;28;20214;-82
2021/04/02 11:49:26;;;;;;;7.10;3.13;;;21.00;99.90;;;;;;5067637;28;20209;-86
2021/04/02 11:51:54;;;;;;;5.65;2.70;;;21.10;99.90;;;;;;5068115;28;20696;-85
2021/04/02 11:54:21;;;;;;;5.57;2.45;;;21.10;99.90;;;;;;5069461;28;20205;-84
2021/04/02 11:56:47;;;;;;;7.75;2.58;;;21.00;99.90;;;;;;5069501;28;20198;-88
2021/04/02 11:59:14;;;;;;;5.43;2.70;;;20.70;99.90;;;;;;5070639;28;20213;-83
2021/04/02 12:01:41;;;;;;;5.28;2.42;;;21.00;99.90;;;;;;5067320;28;20712;-83
2021/04/02 12:04:09;;;;;;;4.00;2.80;;;21.00;99.90;;;;;;5067207;28;20206;-85
2021/04/02 12:06:36;;;;;;;4.13;3.08;;;21.00;99.90;;;;;;5069566;28;20206;-82
2021/04/02 12:09:03;;;;;;;5.40;3.33;;;20.90;99.90;;;;;;5069569;28;20198;-85
2021/04/02 12:11:30;;;;;;;4.78;2.95;;;20.90;99.90;;;;;;5068952;28;20279;-86
2021/04/02 12:13:56;;;;;;;6.05;3.05;;;20.70;99.90;;;;;;5070186;28;20210;-84
2021/04/02 12:16:23;;;;;;;5.05;2.47;;;19.90;99.90;;;;;;5069725;28;20210;-84
2021/04/02 12:18:49;;;;;;;2.47;2.20;;;19.80;99.90;;;;;;5068817;28;20234;-84
2021/04/02 12:21:17;;;;;;;2.85;2.38;;;19.70;99.90;;;;;;5069802;28;20716;-83
2021/04/02 12:23:43;;;;;;;3.53;2.63;;;19.10;99.90;;;;;;5071710;28;20213;-82
2021/04/02 12:26:10;;;;;;;3.33;2.17;;;19.10;99.90;;;;;;5074680;28;20201;-81
2021/04/02 12:28:37;;;;;;;4.28;3.58;;;19.00;99.90;;;;;;5074310;28;20693;-85
2021/04/02 12:31:04;;;;;;;4.22;2.22;;;19.10;99.90;;;;;;5074111;28;20619;-81
2021/04/02 12:33:31;;;;;;;3.65;2.33;;;19.10;99.90;;;;;;5074570;28;20710;-82
2021/04/02 12:35:58;;;;;;;8.73;3.60;;;19.20;99.90;;;;;;5073987;28;20272;-86
2021/04/02 12:38:28;;;;;;;6.78;3.47;;;19.70;99.90;;;;;;5074040;28;20233;-85
2021/04/02 12:40:55;;;;;;;2.80;2.25;;;19.90;99.90;;;;;;5073944;28;20289;-82
2021/04/02 12:43:21;;;;;;;4.55;3.33;;;20.90;99.90;;;;;;5073716;28;20206;-85
2021/04/02 12:45:48;;;;;;;4.63;2.55;;;21.70;99.90;;;;;;5073560;28;20327;-85
2021/04/02 12:48:16;;;;;;;5.32;2.65;;;21.60;99.90;;;;;;5073690;28;20214;-82
2021/04/02 12:50:43;;;;;;;4.82;2.95;;;22.00;99.90;;;;;;5073829;28;20236;-84
2021/04/02 12:53:09;;;;;;;6.13;3.10;;;22.60;99.90;;;;;;5074020;28;20210;-84
2021/04/02 12:55:39;;;;;;;9.32;2.70;;;22.90;99.90;;;;;;5073394;28;20217;-84